Ben — 9VJM4 — position and weather

sailwx.info

Track history (hours):
 
Tides and Currents Weather Stations Pressure Air Temp Water Temp Dewpoint Dewpoint Depression Visibility Wind Speed Wind Dir Waves Ship Positions

Ben

Last reported at 2015-May-22 01:08 UTC. Time now 2015-May-22 11:36 UTC.
Position N 38°55' E 118°02'.

Length 127 m; draft 6.5 m.

Type: Tanker. MMSI: 565611000.

Date/timePositionNaut miles runAvg speedWind from/ knotsBaromVisibWave heightAir tempDewpointWater temp
2015-May-22 01:08N 38°55' E 118°02'711.8
2015-May-22 00:33N 38°57' E 117°54'7 6.3
2015-May-21 23:30N 38°58' E 117°45'0 0.0
2015-May-21 22:24N 38°58' E 117°45'0 0.0
2015-May-21 21:30N 38°58' E 117°45'0 0.0
2015-May-21 20:30N 38°58' E 117°45'0 0.0
2015-May-21 19:30N 38°58' E 117°45'0 0.0
2015-May-21 18:30N 38°58' E 117°45'0 0.0
2015-May-21 17:30N 38°58' E 117°45'0 0.0
2015-May-21 16:24N 38°58' E 117°45'0 0.0
2015-May-21 15:24N 38°58' E 117°45'0 0.0
2015-May-21 14:30N 38°58' E 117°45'0 0.0
2015-May-21 13:30N 38°58' E 117°45'0 0.0
2015-May-21 12:18N 38°58' E 117°45'0 0.0
2015-May-21 11:18N 38°58' E 117°45'0 0.0
2015-May-21 10:30N 38°58' E 117°45'0 0.0
2015-May-21 09:30N 38°58' E 117°45'0 0.0
2015-May-21 08:30N 38°58' E 117°45'0 0.0
2015-May-21 07:30N 38°58' E 117°45'0 0.0
2015-May-21 06:30N 38°58' E 117°45'0 0.0
2015-May-21 05:30N 38°58' E 117°45'0 0.0
2015-May-21 04:24N 38°58' E 117°45'0 0.0
2015-May-21 03:30N 38°58' E 117°45'0 0.0
2015-May-21 02:24N 38°58' E 117°45'0 0.0
2015-May-21 01:30N 38°58' E 117°45'0 0.0
2015-May-21 00:30N 38°58' E 117°45'0 0.0
2015-May-20 23:30N 38°58' E 117°45'0 0.0
2015-May-20 22:30N 38°58' E 117°45'0 0.0
2015-May-20 21:30N 38°58' E 117°45'0 0.0
2015-May-20 20:24N 38°58' E 117°45'0 0.0
2015-May-20 19:30N 38°58' E 117°45'0 0.0
2015-May-20 18:30N 38°58' E 117°45'0 0.0
2015-May-20 17:30N 38°58' E 117°45'0 0.0
2015-May-20 16:12N 38°58' E 117°45'0 0.0
2015-May-20 15:30N 38°58' E 117°45'0 0.0
2015-May-20 14:30N 38°58' E 117°45'0 0.0
2015-May-20 13:30N 38°58' E 117°45'0 0.0
2015-May-20 12:30N 38°58' E 117°45'0 0.0
2015-May-20 11:30N 38°58' E 117°45'0 0.0
2015-May-20 10:30N 38°58' E 117°45'0 0.0
2015-May-20 09:24N 38°58' E 117°45'0 0.0
2015-May-20 08:30N 38°58' E 117°45'0 0.0
2015-May-20 07:30N 38°58' E 117°45'0 0.0
2015-May-20 06:30N 38°58' E 117°45'0 0.0
2015-May-20 05:30N 38°58' E 117°45'0 0.0
2015-May-20 04:24N 38°58' E 117°45'0 0.0
2015-May-20 03:24N 38°58' E 117°45'0 0.0
2015-May-20 02:30N 38°58' E 117°45'0 0.0
2015-May-20 01:30N 38°58' E 117°45'0 0.0
2015-May-20 00:30N 38°58' E 117°45'0 0.0
2015-May-19 23:30N 38°58' E 117°45'0 0.0
2015-May-19 22:30N 38°58' E 117°45'0 0.0
2015-May-19 21:30N 38°58' E 117°45'0 0.0
2015-May-19 20:30N 38°58' E 117°45'0 0.0
2015-May-19 19:30N 38°58' E 117°45'4 4.5
2015-May-19 18:33N 38°58' E 117°51'8 8.2
2015-May-19 17:33N 38°57' E 118°01'11510.4
2015-May-19 06:33N 38°39' E 120°27'5513.4
2015-May-19 02:27N 38°19' E 121°32'3813.1
2015-May-18 23:33N 37°60' E 122°14'1313.4
2015-May-18 22:33N 37°52' E 122°28'1513.6
2015-May-18 21:26N 37°40' E 122°41'2412.5
2015-May-18 19:33N 37°18' E 122°52'1212.2
2015-May-18 18:33N 37°06' E 122°53'1211.6
2015-May-18 17:31N 36°54' E 122°54'1111.0
2015-May-18 16:33N 36°44' E 122°54'35312.1
2015-May-17 11:21N 30°52' E 122°30'8 9.6
2015-May-17 10:33N 30°49' E 122°21'10 9.8
2015-May-17 09:33N 30°41' E 122°15'10 9.9
2015-May-17 08:33N 30°32' E 122°10'1110.3
2015-May-17 07:32N 30°31' E 121°58'1211.8
2015-May-17 06:31N 30°29' E 121°44'1514.1
2015-May-17 05:29N 30°32' E 121°28'1212.6
2015-May-17 04:33N 30°33' E 121°14'8 7.9
2015-May-17 03:33N 30°35' E 121°05'3 0.1
2015-May-16 05:28N 30°34' E 121°09'8 8.8
2015-May-16 04:33N 30°34' E 121°18'10 9.9
2015-May-16 03:32N 30°32' E 121°29'1110.7
2015-May-16 02:33N 30°30' E 121°41'10 9.7
2015-May-16 01:32N 30°26' E 121°52'1313.1
2015-May-16 00:32N 30°23' E 122°07'1514.9
2015-May-15 23:33N 30°22' E 122°23'2613.0
2015-May-15 21:33N 30°21' E 122°54'40512.2
2015-May-14 12:28N 24°24' E 119°18'30612.2
2015-May-13 11:23N 22°07' E 114°20'1810.0
2015-May-13 09:33N 22°19' E 114°05'1 0.1
2015-May-12 21:18N 22°20' E 114°05'810.6
2015-May-12 20:31N 22°13' E 114°10'6 6.8
2015-May-12 19:33N 22°09' E 114°15'9 8.2
2015-May-12 18:25N 22°04' E 114°24'  
Track history (hours):
 
Tides and Currents Weather Stations Pressure Air Temp Water Temp Dewpoint Dewpoint Depression Visibility Wind Speed Wind Dir Waves Ship Positions

Ben

Last reported at 2015-May-22 01:08 UTC. Time now 2015-May-22 11:36 UTC.
Position N 38°55' E 118°02'.

Length 127 m; draft 6.5 m.

Type: Tanker. MMSI: 565611000.

Date/timePositionNaut miles runAvg speedWind from/ knotsBaromVisibWave heightAir tempDewpointWater temp
2015-May-22 01:08N 38°55' E 118°02'711.8
2015-May-22 00:33N 38°57' E 117°54'7 6.3
2015-May-21 23:30N 38°58' E 117°45'0 0.0
2015-May-21 22:24N 38°58' E 117°45'0 0.0
2015-May-21 21:30N 38°58' E 117°45'0 0.0
2015-May-21 20:30N 38°58' E 117°45'0 0.0
2015-May-21 19:30N 38°58' E 117°45'0 0.0
2015-May-21 18:30N 38°58' E 117°45'0 0.0
2015-May-21 17:30N 38°58' E 117°45'0 0.0
2015-May-21 16:24N 38°58' E 117°45'0 0.0
2015-May-21 15:24N 38°58' E 117°45'0 0.0
2015-May-21 14:30N 38°58' E 117°45'0 0.0
2015-May-21 13:30N 38°58' E 117°45'0 0.0
2015-May-21 12:18N 38°58' E 117°45'0 0.0
2015-May-21 11:18N 38°58' E 117°45'0 0.0
2015-May-21 10:30N 38°58' E 117°45'0 0.0
2015-May-21 09:30N 38°58' E 117°45'0 0.0
2015-May-21 08:30N 38°58' E 117°45'0 0.0
2015-May-21 07:30N 38°58' E 117°45'0 0.0
2015-May-21 06:30N 38°58' E 117°45'0 0.0
2015-May-21 05:30N 38°58' E 117°45'0 0.0
2015-May-21 04:24N 38°58' E 117°45'0 0.0
2015-May-21 03:30N 38°58' E 117°45'0 0.0
2015-May-21 02:24N 38°58' E 117°45'0 0.0
2015-May-21 01:30N 38°58' E 117°45'0 0.0
2015-May-21 00:30N 38°58' E 117°45'0 0.0
2015-May-20 23:30N 38°58' E 117°45'0 0.0
2015-May-20 22:30N 38°58' E 117°45'0 0.0
2015-May-20 21:30N 38°58' E 117°45'0 0.0
2015-May-20 20:24N 38°58' E 117°45'0 0.0
2015-May-20 19:30N 38°58' E 117°45'0 0.0
2015-May-20 18:30N 38°58' E 117°45'0 0.0
2015-May-20 17:30N 38°58' E 117°45'0 0.0
2015-May-20 16:12N 38°58' E 117°45'0 0.0
2015-May-20 15:30N 38°58' E 117°45'0 0.0
2015-May-20 14:30N 38°58' E 117°45'0 0.0
2015-May-20 13:30N 38°58' E 117°45'0 0.0
2015-May-20 12:30N 38°58' E 117°45'0 0.0
2015-May-20 11:30N 38°58' E 117°45'0 0.0
2015-May-20 10:30N 38°58' E 117°45'0 0.0
2015-May-20 09:24N 38°58' E 117°45'0 0.0
2015-May-20 08:30N 38°58' E 117°45'0 0.0
2015-May-20 07:30N 38°58' E 117°45'0 0.0
2015-May-20 06:30N 38°58' E 117°45'0 0.0
2015-May-20 05:30N 38°58' E 117°45'0 0.0
2015-May-20 04:24N 38°58' E 117°45'0 0.0
2015-May-20 03:24N 38°58' E 117°45'0 0.0
2015-May-20 02:30N 38°58' E 117°45'0 0.0
2015-May-20 01:30N 38°58' E 117°45'0 0.0
2015-May-20 00:30N 38°58' E 117°45'0 0.0
2015-May-19 23:30N 38°58' E 117°45'0 0.0
2015-May-19 22:30N 38°58' E 117°45'0 0.0
2015-May-19 21:30N 38°58' E 117°45'0 0.0
2015-May-19 20:30N 38°58' E 117°45'0 0.0
2015-May-19 19:30N 38°58' E 117°45'4 4.5
2015-May-19 18:33N 38°58' E 117°51'8 8.2
2015-May-19 17:33N 38°57' E 118°01'11510.4
2015-May-19 06:33N 38°39' E 120°27'5513.4
2015-May-19 02:27N 38°19' E 121°32'3813.1
2015-May-18 23:33N 37°60' E 122°14'1313.4
2015-May-18 22:33N 37°52' E 122°28'1513.6
2015-May-18 21:26N 37°40' E 122°41'2412.5
2015-May-18 19:33N 37°18' E 122°52'1212.2
2015-May-18 18:33N 37°06' E 122°53'1211.6
2015-May-18 17:31N 36°54' E 122°54'1111.0
2015-May-18 16:33N 36°44' E 122°54'35312.1
2015-May-17 11:21N 30°52' E 122°30'8 9.6
2015-May-17 10:33N 30°49' E 122°21'10 9.8
2015-May-17 09:33N 30°41' E 122°15'10 9.9
2015-May-17 08:33N 30°32' E 122°10'1110.3
2015-May-17 07:32N 30°31' E 121°58'1211.8
2015-May-17 06:31N 30°29' E 121°44'1514.1
2015-May-17 05:29N 30°32' E 121°28'1212.6
2015-May-17 04:33N 30°33' E 121°14'8 7.9
2015-May-17 03:33N 30°35' E 121°05'3 0.1
2015-May-16 05:28N 30°34' E 121°09'8 8.8
2015-May-16 04:33N 30°34' E 121°18'10 9.9
2015-May-16 03:32N 30°32' E 121°29'1110.7
2015-May-16 02:33N 30°30' E 121°41'10 9.7
2015-May-16 01:32N 30°26' E 121°52'1313.1
2015-May-16 00:32N 30°23' E 122°07'1514.9
2015-May-15 23:33N 30°22' E 122°23'2613.0
2015-May-15 21:33N 30°21' E 122°54'40512.2
2015-May-14 12:28N 24°24' E 119°18'30612.2
2015-May-13 11:23N 22°07' E 114°20'1810.0
2015-May-13 09:33N 22°19' E 114°05'1 0.1
2015-May-12 21:18N 22°20' E 114°05'810.6
2015-May-12 20:31N 22°13' E 114°10'6 6.8
2015-May-12 19:33N 22°09' E 114°15'9 8.2
2015-May-12 18:25N 22°04' E 114°24'  

Dump ship's entire track history